createdAt,value
2022-10-31T00:00:14.415Z,10.30
2022-10-31T00:02:40.871Z,11.48
2022-10-31T00:05:07.680Z,10.75
2022-10-31T00:07:34.086Z,10.38
2022-10-31T00:10:00.484Z,10.70
2022-10-31T00:12:27.073Z,10.50
2022-10-31T00:14:53.454Z,10.18
2022-10-31T00:17:19.837Z,9.82
2022-10-31T00:19:46.246Z,10.68
2022-10-31T00:22:12.622Z,10.48
2022-10-31T00:24:39.009Z,10.50
2022-10-31T00:27:05.377Z,11.40
2022-10-31T00:29:31.767Z,9.18
2022-10-31T00:31:58.144Z,10.48
2022-10-31T00:34:24.516Z,10.82
2022-10-31T00:36:50.910Z,9.95
2022-10-31T00:39:17.352Z,10.25
2022-10-31T00:41:43.743Z,10.15
2022-10-31T00:44:10.119Z,10.05
2022-10-31T00:46:36.536Z,9.50
2022-10-31T00:49:02.916Z,10.15
2022-10-31T00:51:29.308Z,9.60
2022-10-31T00:53:55.678Z,9.90
2022-10-31T00:56:22.072Z,9.43
2022-10-31T00:58:48.451Z,10.25
2022-10-31T01:01:14.929Z,8.68
2022-10-31T01:03:41.384Z,9.98
2022-10-31T01:06:09.777Z,8.95
2022-10-31T01:08:36.689Z,9.75
2022-10-31T01:11:15.830Z,10.50
2022-10-31T01:13:42.293Z,9.25
2022-10-31T01:16:09.527Z,9.30
2022-10-31T01:18:36.013Z,9.57
2022-10-31T01:21:07.807Z,9.45
2022-10-31T01:23:34.317Z,9.35
2022-10-31T01:26:10.473Z,9.55
2022-10-31T01:28:37.754Z,8.93
2022-10-31T01:31:05.739Z,8.50
2022-10-31T01:33:32.121Z,9.77
2022-10-31T01:35:58.522Z,9.10
2022-10-31T01:38:25.001Z,9.30
2022-10-31T01:40:51.540Z,8.50
2022-10-31T01:43:17.950Z,9.25
2022-10-31T01:45:45.602Z,9.25
2022-10-31T01:48:15.671Z,10.25
2022-10-31T01:50:42.042Z,9.57
2022-10-31T01:53:08.462Z,8.82
2022-10-31T01:55:36.074Z,9.30
2022-10-31T01:58:08.294Z,9.02
2022-10-31T02:00:34.732Z,9.32
2022-10-31T02:03:01.468Z,9.23
2022-10-31T02:05:29.597Z,10.48
2022-10-31T02:08:09.098Z,9.63
2022-10-31T02:10:36.450Z,10.30
2022-10-31T02:13:04.474Z,10.75
2022-10-31T02:15:31.517Z,11.23
2022-10-31T02:17:58.069Z,9.73
2022-10-31T02:20:26.226Z,10.48
2022-10-31T02:23:20.555Z,9.23
2022-10-31T02:26:05.579Z,11.18
2022-10-31T02:28:53.410Z,10.13
2022-10-31T02:31:34.798Z,10.48
2022-10-31T02:34:17.641Z,10.02
2022-10-31T02:36:48.689Z,9.90
2022-10-31T02:39:37.990Z,11.05
2022-10-31T02:42:26.386Z,10.77
2022-10-31T02:45:16.397Z,10.30
2022-10-31T02:47:42.819Z,11.30
2022-10-31T02:50:17.102Z,10.55
2022-10-31T02:52:43.498Z,10.13
2022-10-31T02:55:35.999Z,10.70
2022-10-31T02:58:15.211Z,10.32
2022-10-31T03:01:07.949Z,11.15
2022-10-31T03:04:11.983Z,10.10
2022-10-31T03:06:56.412Z,10.70
2022-10-31T03:09:46.964Z,10.98
2022-10-31T03:12:26.028Z,10.95
2022-10-31T03:15:14.306Z,11.55
2022-10-31T03:18:03.965Z,10.90
2022-10-31T03:21:05.454Z,11.60
2022-10-31T03:23:31.843Z,10.95
2022-10-31T03:25:58.279Z,10.77
2022-10-31T03:28:27.344Z,12.13
2022-10-31T03:30:53.762Z,10.60
2022-10-31T03:33:24.746Z,10.85
2022-10-31T03:35:51.750Z,11.63
2022-10-31T03:38:18.125Z,11.95
2022-10-31T03:40:44.581Z,11.80
2022-10-31T03:43:17.450Z,11.85
2022-10-31T03:45:47.730Z,11.55
2022-10-31T03:48:14.913Z,11.93
2022-10-31T03:50:49.022Z,13.07
2022-10-31T03:53:35.457Z,12.80
2022-10-31T03:56:14.465Z,12.43
2022-10-31T03:58:45.609Z,10.30
2022-10-31T04:01:12.890Z,11.05
2022-10-31T04:03:39.593Z,11.82
2022-10-31T04:06:09.965Z,12.90
2022-10-31T04:08:40.301Z,14.80
2022-10-31T04:11:06.751Z,13.65
2022-10-31T04:13:34.383Z,11.93
2022-10-31T04:16:00.847Z,13.68
2022-10-31T04:18:27.335Z,11.70
2022-10-31T04:21:04.384Z,13.57
2022-10-31T04:23:30.930Z,12.77
2022-10-31T04:25:57.382Z,12.23
2022-10-31T04:28:23.800Z,12.23
2022-10-31T04:30:50.204Z,12.85
2022-10-31T04:33:16.614Z,12.35
2022-10-31T04:35:43.007Z,13.40
2022-10-31T04:38:09.406Z,13.48
2022-10-31T04:40:35.777Z,14.27
2022-10-31T04:43:02.482Z,14.55
2022-10-31T04:45:29.123Z,13.32
2022-10-31T04:47:55.516Z,15.55
2022-10-31T04:50:21.903Z,15.55
2022-10-31T04:52:48.308Z,15.32
2022-10-31T04:55:14.925Z,13.35
2022-10-31T04:57:48.302Z,14.70
2022-10-31T05:00:16.119Z,14.23
2022-10-31T05:02:52.911Z,15.27
2022-10-31T05:05:21.269Z,15.27
2022-10-31T05:07:48.305Z,13.50
2022-10-31T05:10:16.357Z,14.45
2022-10-31T05:12:49.451Z,13.05
2022-10-31T05:15:16.219Z,14.93
2022-10-31T05:17:42.731Z,14.63
2022-10-31T05:20:09.764Z,13.65
2022-10-31T05:22:36.391Z,14.20
2022-10-31T05:25:02.828Z,14.00
2022-10-31T05:27:29.204Z,14.40
2022-10-31T05:29:55.622Z,14.27
2022-10-31T05:32:22.015Z,16.38
2022-10-31T05:34:48.428Z,16.27
2022-10-31T05:37:14.797Z,15.32
2022-10-31T05:39:41.171Z,15.90
2022-10-31T05:42:07.569Z,15.30
2022-10-31T05:44:33.984Z,14.57
2022-10-31T05:47:00.381Z,15.82
2022-10-31T05:49:26.754Z,16.45
2022-10-31T05:51:53.151Z,15.27
2022-10-31T05:54:19.521Z,14.85
2022-10-31T05:56:45.923Z,15.18
2022-10-31T05:59:12.379Z,16.88
2022-10-31T06:01:38.863Z,15.02
2022-10-31T06:04:05.397Z,16.80
2022-10-31T06:06:31.785Z,15.95
2022-10-31T06:08:58.170Z,15.43
2022-10-31T06:11:24.746Z,15.02
2022-10-31T06:13:51.111Z,14.55
2022-10-31T06:16:17.491Z,13.85
2022-10-31T06:18:43.904Z,14.25
2022-10-31T06:21:12.457Z,14.85
2022-10-31T06:23:41.438Z,13.57
2022-10-31T06:26:07.812Z,15.15
2022-10-31T06:28:34.209Z,14.45
2022-10-31T06:31:00.605Z,12.90
2022-10-31T06:33:27.020Z,14.18
2022-10-31T06:35:54.643Z,13.57
2022-10-31T06:38:21.444Z,13.18
2022-10-31T06:40:47.891Z,13.73
2022-10-31T06:43:14.339Z,13.23
2022-10-31T06:45:40.758Z,13.68
2022-10-31T06:48:22.811Z,14.02
2022-10-31T06:50:49.490Z,11.88
2022-10-31T06:53:16.105Z,12.45
2022-10-31T06:55:44.118Z,13.70
2022-10-31T06:58:11.203Z,12.80
2022-10-31T07:00:37.761Z,11.52
2022-10-31T07:03:06.600Z,9.82
2022-10-31T07:05:40.773Z,11.43
2022-10-31T07:08:09.120Z,11.80
2022-10-31T07:10:40.161Z,10.68
2022-10-31T07:13:12.045Z,10.88
2022-10-31T07:15:38.842Z,10.40
2022-10-31T07:18:06.187Z,11.05
2022-10-31T07:20:32.650Z,10.80
2022-10-31T07:22:59.176Z,10.75
2022-10-31T07:25:25.724Z,10.90
2022-10-31T07:27:52.329Z,10.75
2022-10-31T07:30:18.761Z,12.02
2022-10-31T07:32:49.311Z,10.65
2022-10-31T07:35:20.361Z,10.07
2022-10-31T07:37:46.788Z,9.93
2022-10-31T07:40:13.171Z,10.25
2022-10-31T07:42:48.021Z,9.88
2022-10-31T07:45:16.583Z,9.98
2022-10-31T07:47:44.061Z,8.50
2022-10-31T07:50:13.307Z,9.85
2022-10-31T07:52:39.836Z,8.75
2022-10-31T07:55:08.223Z,9.43
2022-10-31T07:57:35.032Z,9.38
2022-10-31T08:00:01.669Z,8.73
2022-10-31T08:02:28.249Z,9.93
2022-10-31T08:04:57.215Z,9.48
2022-10-31T08:07:27.078Z,9.75
2022-10-31T08:09:53.574Z,9.15
2022-10-31T08:12:19.947Z,9.75
2022-10-31T08:14:46.354Z,8.95
2022-10-31T08:17:12.751Z,9.07
2022-10-31T08:19:39.168Z,9.80
2022-10-31T08:22:05.563Z,8.82
2022-10-31T08:24:32.016Z,8.75
2022-10-31T08:26:58.417Z,9.68
2022-10-31T08:29:24.836Z,9.10
2022-10-31T08:31:51.240Z,9.60
2022-10-31T08:34:17.706Z,9.15
2022-10-31T08:36:44.128Z,9.75
2022-10-31T08:39:10.541Z,9.55
2022-10-31T08:41:37.000Z,9.55
2022-10-31T08:44:04.793Z,8.45
2022-10-31T08:46:31.305Z,8.35
2022-10-31T08:48:57.695Z,8.75
2022-10-31T08:51:24.115Z,9.30
2022-10-31T08:53:50.489Z,9.20
2022-10-31T08:56:17.001Z,9.80
2022-10-31T08:58:43.462Z,9.23
2022-10-31T09:01:10.037Z,9.57
2022-10-31T09:03:36.526Z,9.50
2022-10-31T09:06:03.505Z,9.20
2022-10-31T09:08:30.558Z,9.07
2022-10-31T09:10:57.442Z,9.68
2022-10-31T09:13:27.859Z,9.30
2022-10-31T09:15:54.633Z,9.43
2022-10-31T09:18:22.032Z,9.75
2022-10-31T09:20:48.929Z,9.82
2022-10-31T09:23:19.829Z,8.77
2022-10-31T09:25:50.396Z,9.25
2022-10-31T09:28:18.576Z,10.90
2022-10-31T09:30:47.045Z,9.85
2022-10-31T09:33:13.733Z,9.45
2022-10-31T09:35:40.581Z,9.77
2022-10-31T09:38:11.454Z,10.95
2022-10-31T09:40:42.263Z,9.60
2022-10-31T09:43:14.556Z,9.63
2022-10-31T09:45:59.550Z,9.32
2022-10-31T09:48:38.235Z,9.57
2022-10-31T09:51:07.118Z,9.50
2022-10-31T09:53:54.286Z,8.90
2022-10-31T09:56:22.087Z,9.05
2022-10-31T09:58:51.909Z,9.60
2022-10-31T10:01:32.649Z,9.60
2022-10-31T10:04:26.880Z,9.90
2022-10-31T10:06:53.265Z,10.27
2022-10-31T10:12:17.696Z,11.05
2022-10-31T10:14:50.615Z,10.07
2022-10-31T10:17:33.589Z,9.63
2022-10-31T10:20:09.126Z,9.55
2022-10-31T10:25:13.763Z,10.27
2022-10-31T10:27:47.880Z,10.65
2022-10-31T10:30:16.364Z,10.48
2022-10-31T10:32:55.168Z,11.75
2022-10-31T10:35:25.831Z,9.20
2022-10-31T10:37:55.054Z,10.20
2022-10-31T10:40:25.593Z,10.43
2022-10-31T10:43:11.613Z,9.85
2022-10-31T10:45:37.982Z,11.45
2022-10-31T10:48:16.834Z,11.82
2022-10-31T10:50:49.105Z,10.57
2022-10-31T10:53:36.756Z,11.90
2022-10-31T10:56:24.295Z,10.52
2022-10-31T10:58:50.669Z,11.38
2022-10-31T11:01:17.066Z,11.93
2022-10-31T11:03:43.541Z,12.30
2022-10-31T11:06:20.714Z,10.90
2022-10-31T11:08:47.078Z,11.80
2022-10-31T11:11:30.236Z,12.15
2022-10-31T11:14:05.673Z,12.10
2022-10-31T11:19:22.530Z,11.73
2022-10-31T11:21:52.842Z,14.60
2022-10-31T11:24:22.770Z,12.95
2022-10-31T11:26:50.285Z,12.43
2022-10-31T11:29:26.299Z,13.55
2022-10-31T11:31:54.253Z,14.18
2022-10-31T11:34:33.738Z,12.55
2022-10-31T11:37:14.770Z,12.88
2022-10-31T11:39:42.771Z,14.07
2022-10-31T11:42:09.288Z,13.52
2022-10-31T11:44:35.713Z,12.57
2022-10-31T11:47:05.818Z,12.95
2022-10-31T11:50:02.780Z,12.88
2022-10-31T11:52:32.392Z,13.63
2022-10-31T11:57:48.433Z,13.68
2022-10-31T12:00:26.243Z,12.23
2022-10-31T12:02:55.058Z,14.43
2022-10-31T12:05:26.399Z,15.40
2022-10-31T12:07:52.800Z,15.93
2022-10-31T12:10:20.658Z,17.27
2022-10-31T12:12:55.524Z,16.60
2022-10-31T12:15:35.441Z,15.82
2022-10-31T12:18:09.783Z,16.08
2022-10-31T12:21:19.195Z,15.85
2022-10-31T12:23:55.719Z,16.48
2022-10-31T12:26:37.610Z,15.10
2022-10-31T12:29:27.169Z,15.48
2022-10-31T12:31:59.214Z,15.85
2022-10-31T12:34:34.497Z,15.57
2022-10-31T12:37:02.735Z,15.93
2022-10-31T12:39:36.345Z,16.45
2022-10-31T12:42:29.062Z,16.63
2022-10-31T12:45:07.182Z,15.48
2022-10-31T12:47:45.701Z,16.20
2022-10-31T12:50:18.195Z,15.75
2022-10-31T12:52:48.413Z,15.32
2022-10-31T12:55:17.908Z,16.77
2022-10-31T12:57:47.219Z,17.52
2022-10-31T13:00:17.720Z,17.58
2022-10-31T13:03:00.376Z,17.23
2022-10-31T13:05:39.578Z,16.02
2022-10-31T13:08:35.990Z,13.40
2022-10-31T13:11:24.560Z,14.20
2022-10-31T13:14:22.950Z,13.30
2022-10-31T13:16:49.424Z,12.52
2022-10-31T13:19:22.070Z,12.30
2022-10-31T13:21:54.447Z,14.50
2022-10-31T13:24:23.449Z,12.65
2022-10-31T13:26:56.074Z,13.25
2022-10-31T13:29:33.006Z,14.00
2022-10-31T13:32:01.228Z,12.40
2022-10-31T13:34:38.514Z,13.35
2022-10-31T13:37:20.125Z,12.63
2022-10-31T13:40:05.719Z,13.48
2022-10-31T13:42:50.769Z,11.52
2022-10-31T13:45:21.824Z,10.40
2022-10-31T13:48:01.598Z,10.90
2022-10-31T13:50:32.102Z,9.98
2022-10-31T13:53:37.765Z,9.88
2022-10-31T13:56:09.014Z,10.07
2022-10-31T13:58:35.431Z,10.57
2022-10-31T14:01:11.271Z,13.68
2022-10-31T14:04:04.727Z,11.57
2022-10-31T14:06:24.983Z,8.98
2022-10-31T14:08:52.301Z,9.43
2022-10-31T14:11:23.907Z,7.38
2022-10-31T14:13:50.319Z,8.68
2022-10-31T14:16:24.128Z,8.85
2022-10-31T14:19:07.953Z,9.05
2022-10-31T14:21:39.331Z,8.80
2022-10-31T14:24:24.513Z,9.95
2022-10-31T14:26:57.825Z,9.18
2022-10-31T14:29:33.930Z,8.65
2022-10-31T14:32:12.510Z,8.90
2022-10-31T14:34:51.104Z,8.45
2022-10-31T14:37:23.838Z,8.40
2022-10-31T14:40:25.871Z,8.30
2022-10-31T14:43:23.257Z,8.30
2022-10-31T14:46:13.036Z,8.00
2022-10-31T14:49:09.094Z,8.07
2022-10-31T14:51:44.288Z,8.02
2022-10-31T14:54:34.582Z,8.70
2022-10-31T14:57:07.196Z,9.02
2022-10-31T14:59:36.834Z,9.32
2022-10-31T15:04:41.260Z,7.70
2022-10-31T15:07:24.349Z,8.70
2022-10-31T15:10:06.021Z,9.13
2022-10-31T15:12:34.064Z,9.23
2022-10-31T15:15:14.342Z,8.93
2022-10-31T15:17:44.584Z,8.88
2022-10-31T15:20:12.619Z,8.43
2022-10-31T15:22:39.095Z,8.98
2022-10-31T15:25:06.665Z,9.13
2022-10-31T15:27:33.052Z,9.05
2022-10-31T15:29:59.436Z,8.65
2022-10-31T15:32:28.024Z,8.98
2022-10-31T15:34:55.221Z,9.80
2022-10-31T15:37:22.553Z,9.63
2022-10-31T15:39:49.837Z,10.50
2022-10-31T15:42:20.709Z,9.02
2022-10-31T15:44:50.438Z,8.90
2022-10-31T15:47:17.939Z,9.45
2022-10-31T15:49:53.978Z,8.45
2022-10-31T15:52:45.230Z,8.85
2022-10-31T15:55:20.655Z,8.88
2022-10-31T15:57:52.638Z,7.57
2022-10-31T16:00:31.930Z,7.90
2022-10-31T16:03:16.833Z,9.40
2022-10-31T16:05:53.934Z,9.18
2022-10-31T16:08:31.692Z,9.40
2022-10-31T16:10:58.477Z,9.00
2022-10-31T16:13:36.648Z,8.93
2022-10-31T16:16:39.623Z,9.82
2022-10-31T16:19:06.418Z,9.43
2022-10-31T16:21:34.749Z,8.90
2022-10-31T16:24:07.121Z,9.45
2022-10-31T16:26:33.833Z,9.10
2022-10-31T16:29:05.407Z,9.32
2022-10-31T16:31:39.489Z,10.48
2022-10-31T16:34:13.346Z,8.73
2022-10-31T16:36:39.821Z,9.68
2022-10-31T16:39:06.483Z,9.68
2022-10-31T16:41:35.055Z,9.07
2022-10-31T16:44:01.648Z,8.85
2022-10-31T16:46:28.141Z,9.00
2022-10-31T16:48:54.789Z,8.68
2022-10-31T16:51:21.489Z,8.50
2022-10-31T16:53:48.017Z,9.25
2022-10-31T16:56:27.260Z,9.02
2022-10-31T16:58:53.660Z,9.05
2022-10-31T17:01:20.174Z,9.20
2022-10-31T17:03:46.645Z,9.27
2022-10-31T17:06:13.209Z,9.25
2022-10-31T17:08:39.779Z,8.40
2022-10-31T17:11:06.220Z,8.95
2022-10-31T17:13:32.690Z,9.20
2022-10-31T17:16:00.681Z,11.80
2022-10-31T17:18:27.988Z,9.25
2022-10-31T17:20:58.666Z,8.63
2022-10-31T17:23:25.142Z,8.23
2022-10-31T17:25:51.548Z,8.75
2022-10-31T17:28:17.961Z,8.50
2022-10-31T17:30:44.369Z,8.20
2022-10-31T17:33:17.902Z,9.10
2022-10-31T17:35:44.614Z,7.72
2022-10-31T17:38:11.422Z,8.60
2022-10-31T17:40:38.590Z,8.60
2022-10-31T17:43:05.057Z,10.05
2022-10-31T17:45:31.559Z,9.18
2022-10-31T17:47:57.941Z,9.85
2022-10-31T17:50:25.175Z,9.45
2022-10-31T17:52:51.592Z,10.38
2022-10-31T17:55:18.121Z,11.02
2022-10-31T17:57:45.646Z,10.20
2022-10-31T18:00:14.356Z,9.70
2022-10-31T18:02:40.924Z,10.13
2022-10-31T18:05:07.670Z,9.60
2022-10-31T18:07:34.049Z,9.32
2022-10-31T18:10:00.500Z,9.77
2022-10-31T18:12:27.428Z,10.70
2022-10-31T18:14:53.890Z,11.13
2022-10-31T18:17:20.579Z,10.60
2022-10-31T18:19:46.977Z,9.27
2022-10-31T18:22:13.581Z,11.88
2022-10-31T18:24:40.067Z,10.38
2022-10-31T18:27:08.173Z,10.80
2022-10-31T18:29:34.573Z,9.90
2022-10-31T18:32:03.265Z,10.48
2022-10-31T18:34:33.455Z,11.10
2022-10-31T18:36:59.844Z,10.77
2022-10-31T18:39:26.286Z,11.00
2022-10-31T18:41:52.660Z,12.38
2022-10-31T18:44:19.093Z,10.73
2022-10-31T18:46:45.497Z,12.30
2022-10-31T18:49:11.906Z,11.40
2022-10-31T18:51:38.310Z,10.32
2022-10-31T18:54:04.700Z,9.88
2022-10-31T18:56:33.490Z,10.40
2022-10-31T18:59:00.234Z,10.07
2022-10-31T19:01:27.047Z,10.18
2022-10-31T19:03:54.066Z,10.60
2022-10-31T19:06:20.470Z,10.55
2022-10-31T19:08:46.910Z,9.27
2022-10-31T19:11:14.281Z,9.45
2022-10-31T19:13:41.426Z,10.35
2022-10-31T19:16:12.126Z,9.05
2022-10-31T19:18:38.618Z,10.38
2022-10-31T19:21:09.079Z,9.18
2022-10-31T19:23:35.763Z,9.60
2022-10-31T19:26:02.175Z,10.30
2022-10-31T19:28:32.414Z,9.93
2022-10-31T19:30:58.928Z,9.52
2022-10-31T19:33:25.373Z,10.88
2022-10-31T19:35:51.866Z,11.07
2022-10-31T19:38:18.277Z,10.88
2022-10-31T19:40:44.665Z,11.05
2022-10-31T19:43:12.520Z,12.20
2022-10-31T19:45:39.055Z,10.32
2022-10-31T19:48:05.443Z,11.23
2022-10-31T19:50:31.802Z,10.80
2022-10-31T19:52:58.205Z,11.38
2022-10-31T19:55:24.673Z,11.73
2022-10-31T19:58:06.586Z,11.30
2022-10-31T20:00:32.987Z,10.57
2022-10-31T20:02:59.822Z,10.98
2022-10-31T20:05:28.781Z,10.20
2022-10-31T20:07:56.070Z,11.15
2022-10-31T20:10:22.568Z,11.60
2022-10-31T20:12:48.996Z,11.30
2022-10-31T20:15:15.416Z,11.43
2022-10-31T20:17:41.845Z,10.82
2022-10-31T20:20:09.464Z,10.82
2022-10-31T20:22:36.297Z,11.15
2022-10-31T20:25:02.935Z,10.15
2022-10-31T20:27:29.384Z,9.93
2022-10-31T20:29:55.766Z,10.30
2022-10-31T20:32:22.165Z,11.05
2022-10-31T20:37:14.966Z,10.02
2022-10-31T20:39:41.366Z,10.85
2022-10-31T20:42:08.950Z,12.20
2022-10-31T20:44:35.349Z,11.98
2022-10-31T20:47:03.165Z,11.75
2022-10-31T20:49:30.057Z,11.43
2022-10-31T20:51:56.818Z,12.52
2022-10-31T20:54:24.388Z,12.15
2022-10-31T20:56:50.801Z,10.93
2022-10-31T20:59:17.301Z,12.63
2022-10-31T21:01:43.915Z,12.70
2022-10-31T21:04:11.253Z,11.90
2022-10-31T21:06:38.230Z,12.95
2022-10-31T21:09:05.048Z,13.35
2022-10-31T21:11:31.677Z,12.75
2022-10-31T21:13:58.591Z,11.95
2022-10-31T21:16:32.096Z,12.00
2022-10-31T21:18:59.688Z,12.98
2022-10-31T21:21:32.539Z,13.23
2022-10-31T21:24:01.343Z,12.95
2022-10-31T21:26:29.469Z,12.90
2022-10-31T21:28:57.234Z,11.90
2022-10-31T21:31:23.719Z,13.13
2022-10-31T21:33:50.121Z,13.18
2022-10-31T21:36:16.563Z,13.35
2022-10-31T21:38:42.984Z,13.10
2022-10-31T21:41:10.998Z,13.05
2022-10-31T21:43:38.906Z,14.02
2022-10-31T21:46:12.413Z,13.32
2022-10-31T21:48:39.157Z,13.23
2022-10-31T21:51:07.560Z,14.07
2022-10-31T21:53:34.018Z,14.00
2022-10-31T21:56:04.677Z,13.75
2022-10-31T21:58:34.808Z,13.27
2022-10-31T22:01:04.255Z,14.70
2022-10-31T22:03:34.140Z,13.73
2022-10-31T22:06:05.272Z,15.43
2022-10-31T22:08:34.133Z,15.57
2022-10-31T22:11:04.363Z,14.75
2022-10-31T22:13:31.690Z,14.85
2022-10-31T22:16:05.389Z,14.38
2022-10-31T22:18:31.784Z,14.82
2022-10-31T22:21:02.367Z,15.98
2022-10-31T22:23:28.954Z,16.02
2022-10-31T22:25:55.708Z,15.10
2022-10-31T22:28:22.198Z,16.17
2022-10-31T22:30:48.565Z,14.98
2022-10-31T22:33:14.965Z,16.10
2022-10-31T22:35:41.345Z,16.35
2022-10-31T22:38:07.719Z,15.20
2022-10-31T22:40:34.120Z,15.82
2022-10-31T22:43:00.873Z,15.20
2022-10-31T22:45:27.573Z,16.85
2022-10-31T22:47:53.941Z,17.00
2022-10-31T22:50:28.123Z,16.58
2022-10-31T22:52:54.528Z,16.67
2022-10-31T22:55:20.943Z,14.38
2022-10-31T22:57:47.330Z,15.13
2022-10-31T23:00:13.861Z,16.23
2022-10-31T23:02:41.525Z,14.70
2022-10-31T23:05:08.046Z,13.32
2022-10-31T23:07:34.413Z,15.48
2022-10-31T23:10:00.834Z,13.73
2022-10-31T23:12:29.435Z,13.20
2022-10-31T23:14:55.997Z,13.77
2022-10-31T23:17:22.374Z,12.82
2022-10-31T23:19:48.863Z,14.30
2022-10-31T23:22:15.361Z,13.02
2022-10-31T23:24:43.259Z,13.40
2022-10-31T23:27:15.776Z,14.68
2022-10-31T23:29:46.829Z,13.23
2022-10-31T23:32:17.005Z,14.65
2022-10-31T23:34:43.503Z,14.85
2022-10-31T23:37:09.932Z,15.75
2022-10-31T23:39:36.329Z,14.23
2022-10-31T23:42:02.843Z,14.88
2022-10-31T23:44:29.220Z,14.93
2022-10-31T23:46:55.609Z,15.98
2022-10-31T23:49:21.986Z,15.00
2022-10-31T23:51:48.376Z,15.10
2022-10-31T23:54:14.747Z,14.57
2022-10-31T23:56:41.152Z,14.50
2022-10-31T23:59:07.685Z,14.85
